sensor_id;sensor_type;location;lat;lon;timestamp;P1;durP1;ratioP1;P2;durP2;ratioP2
26774;SDS011;14362;51.902;7.626;2023-12-04T00:03:00;24.33;;;11.95;;
26774;SDS011;14362;51.902;7.626;2023-12-04T00:07:01;26.63;;;11.77;;
26774;SDS011;14362;51.902;7.626;2023-12-04T00:11:03;22.45;;;10.80;;
26774;SDS011;14362;51.902;7.626;2023-12-04T00:15:07;25.13;;;11.27;;
26774;SDS011;14362;51.902;7.626;2023-12-04T00:19:10;23.08;;;11.75;;
26774;SDS011;14362;51.902;7.626;2023-12-04T00:23:11;22.88;;;11.05;;
26774;SDS011;14362;51.902;7.626;2023-12-04T00:27:12;21.92;;;10.50;;
26774;SDS011;14362;51.902;7.626;2023-12-04T00:31:15;21.67;;;10.52;;
26774;SDS011;14362;51.902;7.626;2023-12-04T00:35:17;23.80;;;11.02;;
26774;SDS011;14362;51.902;7.626;2023-12-04T00:39:18;24.92;;;11.23;;
26774;SDS011;14362;51.902;7.626;2023-12-04T00:43:19;18.88;;;9.70;;
26774;SDS011;14362;51.902;7.626;2023-12-04T00:47:22;20.70;;;11.00;;
26774;SDS011;14362;51.902;7.626;2023-12-04T00:51:24;18.05;;;9.55;;
26774;SDS011;14362;51.902;7.626;2023-12-04T00:55:25;19.63;;;10.40;;
26774;SDS011;14362;51.902;7.626;2023-12-04T00:59:27;20.92;;;10.48;;
26774;SDS011;14362;51.902;7.626;2023-12-04T01:03:29;19.73;;;10.13;;
26774;SDS011;14362;51.902;7.626;2023-12-04T01:07:33;21.88;;;10.18;;
26774;SDS011;14362;51.902;7.626;2023-12-04T01:11:34;20.63;;;9.52;;
26774;SDS011;14362;51.902;7.626;2023-12-04T01:15:36;19.80;;;10.88;;
26774;SDS011;14362;51.902;7.626;2023-12-04T01:19:40;19.63;;;9.68;;
26774;SDS011;14362;51.902;7.626;2023-12-04T01:23:41;20.30;;;9.65;;
26774;SDS011;14362;51.902;7.626;2023-12-04T01:27:43;18.45;;;9.13;;
26774;SDS011;14362;51.902;7.626;2023-12-04T01:31:44;19.85;;;10.32;;
26774;SDS011;14362;51.902;7.626;2023-12-04T01:35:47;19.67;;;9.85;;
26774;SDS011;14362;51.902;7.626;2023-12-04T01:39:48;18.67;;;9.38;;
26774;SDS011;14362;51.902;7.626;2023-12-04T01:43:50;21.75;;;9.55;;
26774;SDS011;14362;51.902;7.626;2023-12-04T01:47:51;22.45;;;10.30;;
26774;SDS011;14362;51.902;7.626;2023-12-04T01:51:54;18.38;;;9.95;;
26774;SDS011;14362;51.902;7.626;2023-12-04T01:55:56;21.40;;;10.50;;
26774;SDS011;14362;51.902;7.626;2023-12-04T01:59:57;20.70;;;9.93;;
26774;SDS011;14362;51.902;7.626;2023-12-04T02:03:59;20.75;;;10.27;;
26774;SDS011;14362;51.902;7.626;2023-12-04T02:08:04;16.55;;;9.02;;
26774;SDS011;14362;51.902;7.626;2023-12-04T02:12:06;21.33;;;10.07;;
26774;SDS011;14362;51.902;7.626;2023-12-04T02:16:09;19.88;;;9.55;;
26774;SDS011;14362;51.902;7.626;2023-12-04T02:20:12;19.05;;;10.05;;
26774;SDS011;14362;51.902;7.626;2023-12-04T02:24:15;17.45;;;9.57;;
26774;SDS011;14362;51.902;7.626;2023-12-04T02:28:16;19.35;;;10.55;;
26774;SDS011;14362;51.902;7.626;2023-12-04T02:32:19;17.23;;;9.07;;
26774;SDS011;14362;51.902;7.626;2023-12-04T02:36:23;20.70;;;9.80;;
26774;SDS011;14362;51.902;7.626;2023-12-04T02:40:26;18.42;;;9.68;;
26774;SDS011;14362;51.902;7.626;2023-12-04T02:44:28;18.30;;;9.25;;
26774;SDS011;14362;51.902;7.626;2023-12-04T02:48:29;18.08;;;9.30;;
26774;SDS011;14362;51.902;7.626;2023-12-04T02:52:31;22.00;;;9.77;;
26774;SDS011;14362;51.902;7.626;2023-12-04T02:56:34;18.50;;;9.13;;
26774;SDS011;14362;51.902;7.626;2023-12-04T03:00:35;21.98;;;10.35;;
26774;SDS011;14362;51.902;7.626;2023-12-04T03:04:36;17.60;;;8.95;;
26774;SDS011;14362;51.902;7.626;2023-12-04T03:08:38;17.05;;;8.95;;
26774;SDS011;14362;51.902;7.626;2023-12-04T03:12:40;18.35;;;9.90;;
26774;SDS011;14362;51.902;7.626;2023-12-04T03:16:42;18.63;;;10.15;;
26774;SDS011;14362;51.902;7.626;2023-12-04T03:20:43;20.05;;;10.63;;
26774;SDS011;14362;51.902;7.626;2023-12-04T03:24:45;15.73;;;8.98;;
26774;SDS011;14362;51.902;7.626;2023-12-04T03:28:48;17.42;;;9.30;;
26774;SDS011;14362;51.902;7.626;2023-12-04T03:32:49;20.15;;;10.40;;
26774;SDS011;14362;51.902;7.626;2023-12-04T03:36:51;16.17;;;9.43;;
26774;SDS011;14362;51.902;7.626;2023-12-04T03:40:52;18.48;;;10.05;;
26774;SDS011;14362;51.902;7.626;2023-12-04T03:44:55;19.10;;;9.90;;
26774;SDS011;14362;51.902;7.626;2023-12-04T03:48:56;18.23;;;10.35;;
26774;SDS011;14362;51.902;7.626;2023-12-04T03:52:58;19.48;;;9.27;;
26774;SDS011;14362;51.902;7.626;2023-12-04T03:56:59;19.33;;;10.18;;
26774;SDS011;14362;51.902;7.626;2023-12-04T04:01:02;19.95;;;9.63;;
26774;SDS011;14362;51.902;7.626;2023-12-04T04:05:04;18.42;;;9.77;;
26774;SDS011;14362;51.902;7.626;2023-12-04T04:09:06;17.17;;;8.80;;
26774;SDS011;14362;51.902;7.626;2023-12-04T04:13:07;18.17;;;10.15;;
26774;SDS011;14362;51.902;7.626;2023-12-04T04:17:11;16.15;;;9.10;;
26774;SDS011;14362;51.902;7.626;2023-12-04T04:21:12;20.10;;;10.15;;
26774;SDS011;14362;51.902;7.626;2023-12-04T04:25:14;17.85;;;8.75;;
26774;SDS011;14362;51.902;7.626;2023-12-04T04:29:15;16.23;;;8.82;;
26774;SDS011;14362;51.902;7.626;2023-12-04T04:33:18;13.57;;;7.60;;
26774;SDS011;14362;51.902;7.626;2023-12-04T04:37:19;16.77;;;9.23;;
26774;SDS011;14362;51.902;7.626;2023-12-04T04:41:21;15.00;;;8.70;;
26774;SDS011;14362;51.902;7.626;2023-12-04T04:45:23;13.95;;;8.35;;
26774;SDS011;14362;51.902;7.626;2023-12-04T04:49:26;17.02;;;8.82;;
26774;SDS011;14362;51.902;7.626;2023-12-04T04:53:28;13.45;;;7.97;;
26774;SDS011;14362;51.902;7.626;2023-12-04T04:57:29;14.15;;;8.40;;
26774;SDS011;14362;51.902;7.626;2023-12-04T05:01:30;13.23;;;7.55;;
26774;SDS011;14362;51.902;7.626;2023-12-04T05:05:33;16.13;;;7.93;;
26774;SDS011;14362;51.902;7.626;2023-12-04T05:09:35;14.05;;;7.93;;
26774;SDS011;14362;51.902;7.626;2023-12-04T05:13:36;13.18;;;6.95;;
26774;SDS011;14362;51.902;7.626;2023-12-04T05:17:37;16.23;;;7.80;;
26774;SDS011;14362;51.902;7.626;2023-12-04T05:21:40;11.95;;;7.10;;
26774;SDS011;14362;51.902;7.626;2023-12-04T05:25:42;13.85;;;7.43;;
26774;SDS011;14362;51.902;7.626;2023-12-04T05:29:43;12.02;;;7.28;;
26774;SDS011;14362;51.902;7.626;2023-12-04T05:33:44;10.07;;;6.68;;
26774;SDS011;14362;51.902;7.626;2023-12-04T05:37:47;13.38;;;7.07;;
26774;SDS011;14362;51.902;7.626;2023-12-04T05:41:49;13.27;;;6.82;;
26774;SDS011;14362;51.902;7.626;2023-12-04T05:45:51;12.18;;;6.95;;
26774;SDS011;14362;51.902;7.626;2023-12-04T05:49:52;11.85;;;6.53;;
26774;SDS011;14362;51.902;7.626;2023-12-04T05:53:55;11.10;;;6.43;;
26774;SDS011;14362;51.902;7.626;2023-12-04T05:57:56;11.45;;;6.25;;
26774;SDS011;14362;51.902;7.626;2023-12-04T06:01:58;10.95;;;5.85;;
26774;SDS011;14362;51.902;7.626;2023-12-04T06:05:59;10.00;;;5.65;;
26774;SDS011;14362;51.902;7.626;2023-12-04T06:10:03;9.95;;;6.30;;
26774;SDS011;14362;51.902;7.626;2023-12-04T06:14:05;11.90;;;6.00;;
26774;SDS011;14362;51.902;7.626;2023-12-04T06:18:07;10.60;;;6.05;;
26774;SDS011;14362;51.902;7.626;2023-12-04T06:22:08;10.45;;;5.97;;
26774;SDS011;14362;51.902;7.626;2023-12-04T06:26:12;11.63;;;5.78;;
26774;SDS011;14362;51.902;7.626;2023-12-04T06:30:14;10.07;;;5.68;;
26774;SDS011;14362;51.902;7.626;2023-12-04T06:34:16;10.57;;;6.13;;
26774;SDS011;14362;51.902;7.626;2023-12-04T06:38:18;8.15;;;5.82;;
26774;SDS011;14362;51.902;7.626;2023-12-04T06:42:25;11.38;;;6.35;;
26774;SDS011;14362;51.902;7.626;2023-12-04T06:46:28;8.88;;;6.10;;
26774;SDS011;14362;51.902;7.626;2023-12-04T06:50:31;10.63;;;5.93;;
26774;SDS011;14362;51.902;7.626;2023-12-04T06:54:33;11.38;;;5.88;;
26774;SDS011;14362;51.902;7.626;2023-12-04T06:58:35;10.13;;;5.90;;
26774;SDS011;14362;51.902;7.626;2023-12-04T07:02:37;9.77;;;5.93;;
26774;SDS011;14362;51.902;7.626;2023-12-04T07:06:38;10.85;;;6.25;;
26774;SDS011;14362;51.902;7.626;2023-12-04T07:10:41;10.82;;;6.47;;
26774;SDS011;14362;51.902;7.626;2023-12-04T07:14:44;9.63;;;5.93;;
26774;SDS011;14362;51.902;7.626;2023-12-04T07:18:45;8.98;;;5.80;;
26774;SDS011;14362;51.902;7.626;2023-12-04T07:22:46;10.35;;;5.65;;
26774;SDS011;14362;51.902;7.626;2023-12-04T07:26:48;8.77;;;5.20;;
26774;SDS011;14362;51.902;7.626;2023-12-04T07:30:51;10.23;;;6.13;;
26774;SDS011;14362;51.902;7.626;2023-12-04T07:34:53;9.60;;;5.25;;
26774;SDS011;14362;51.902;7.626;2023-12-04T07:38:54;8.95;;;5.13;;
26774;SDS011;14362;51.902;7.626;2023-12-04T07:42:55;8.90;;;5.78;;
26774;SDS011;14362;51.902;7.626;2023-12-04T07:46:58;10.82;;;5.90;;
26774;SDS011;14362;51.902;7.626;2023-12-04T07:51:00;8.82;;;5.53;;
26774;SDS011;14362;51.902;7.626;2023-12-04T07:55:01;10.60;;;5.55;;
26774;SDS011;14362;51.902;7.626;2023-12-04T07:59:03;12.10;;;5.78;;
26774;SDS011;14362;51.902;7.626;2023-12-04T08:03:06;10.40;;;5.43;;
26774;SDS011;14362;51.902;7.626;2023-12-04T08:07:07;9.23;;;5.47;;
26774;SDS011;14362;51.902;7.626;2023-12-04T08:11:09;9.65;;;5.13;;
26774;SDS011;14362;51.902;7.626;2023-12-04T08:15:12;10.48;;;5.70;;
26774;SDS011;14362;51.902;7.626;2023-12-04T08:19:15;8.35;;;5.60;;
26774;SDS011;14362;51.902;7.626;2023-12-04T08:23:17;9.23;;;5.55;;
26774;SDS011;14362;51.902;7.626;2023-12-04T08:27:18;9.73;;;5.35;;
26774;SDS011;14362;51.902;7.626;2023-12-04T08:31:20;12.10;;;5.93;;
26774;SDS011;14362;51.902;7.626;2023-12-04T08:35:23;10.38;;;6.47;;
26774;SDS011;14362;51.902;7.626;2023-12-04T08:39:24;9.57;;;5.65;;
26774;SDS011;14362;51.902;7.626;2023-12-04T08:43:26;10.05;;;6.20;;
26774;SDS011;14362;51.902;7.626;2023-12-04T08:47:28;10.77;;;6.20;;
26774;SDS011;14362;51.902;7.626;2023-12-04T08:51:31;9.85;;;6.05;;
26774;SDS011;14362;51.902;7.626;2023-12-04T08:55:33;10.57;;;6.03;;
26774;SDS011;14362;51.902;7.626;2023-12-04T08:59:34;11.23;;;6.57;;
26774;SDS011;14362;51.902;7.626;2023-12-04T09:03:36;10.70;;;7.43;;
26774;SDS011;14362;51.902;7.626;2023-12-04T09:07:38;11.57;;;6.15;;
26774;SDS011;14362;51.902;7.626;2023-12-04T09:11:40;9.43;;;5.70;;
26774;SDS011;14362;51.902;7.626;2023-12-04T09:15:42;9.45;;;5.88;;
26774;SDS011;14362;51.902;7.626;2023-12-04T09:19:44;8.93;;;5.88;;
26774;SDS011;14362;51.902;7.626;2023-12-04T09:23:46;10.45;;;5.93;;
26774;SDS011;14362;51.902;7.626;2023-12-04T09:27:49;11.65;;;6.80;;
26774;SDS011;14362;51.902;7.626;2023-12-04T09:31:51;11.90;;;7.03;;
26774;SDS011;14362;51.902;7.626;2023-12-04T09:35:52;12.93;;;6.75;;
26774;SDS011;14362;51.902;7.626;2023-12-04T09:39:55;10.65;;;6.95;;
26774;SDS011;14362;51.902;7.626;2023-12-04T09:43:57;13.43;;;7.45;;
26774;SDS011;14362;51.902;7.626;2023-12-04T09:47:58;10.93;;;6.82;;
26774;SDS011;14362;51.902;7.626;2023-12-04T09:52:00;11.75;;;7.00;;
26774;SDS011;14362;51.902;7.626;2023-12-04T09:56:05;12.52;;;6.97;;
26774;SDS011;14362;51.902;7.626;2023-12-04T10:00:09;11.20;;;6.38;;
26774;SDS011;14362;51.902;7.626;2023-12-04T10:04:12;9.27;;;6.18;;
26774;SDS011;14362;51.902;7.626;2023-12-04T10:08:14;8.82;;;5.95;;
26774;SDS011;14362;51.902;7.626;2023-12-04T10:12:20;8.85;;;6.35;;
26774;SDS011;14362;51.902;7.626;2023-12-04T10:16:31;13.15;;;6.97;;
26774;SDS011;14362;51.902;7.626;2023-12-04T10:20:34;12.25;;;6.82;;
26774;SDS011;14362;51.902;7.626;2023-12-04T10:24:35;11.13;;;6.35;;
26774;SDS011;14362;51.902;7.626;2023-12-04T10:28:39;11.52;;;6.20;;
26774;SDS011;14362;51.902;7.626;2023-12-04T10:32:41;10.98;;;6.38;;
26774;SDS011;14362;51.902;7.626;2023-12-04T10:36:42;9.10;;;5.80;;
26774;SDS011;14362;51.902;7.626;2023-12-04T10:40:45;11.77;;;6.45;;
26774;SDS011;14362;51.902;7.626;2023-12-04T10:44:48;8.68;;;5.35;;
26774;SDS011;14362;51.902;7.626;2023-12-04T10:48:51;9.82;;;6.13;;
26774;SDS011;14362;51.902;7.626;2023-12-04T10:52:52;8.93;;;5.97;;
26774;SDS011;14362;51.902;7.626;2023-12-04T10:56:56;8.90;;;6.03;;
26774;SDS011;14362;51.902;7.626;2023-12-04T11:01:04;9.05;;;5.63;;
26774;SDS011;14362;51.902;7.626;2023-12-04T11:05:08;11.52;;;7.25;;
26774;SDS011;14362;51.902;7.626;2023-12-04T11:09:16;10.23;;;5.57;;
26774;SDS011;14362;51.902;7.626;2023-12-04T11:13:21;8.43;;;5.32;;
26774;SDS011;14362;51.902;7.626;2023-12-04T11:17:26;8.60;;;5.57;;
26774;SDS011;14362;51.902;7.626;2023-12-04T11:21:34;8.48;;;5.60;;
26774;SDS011;14362;51.902;7.626;2023-12-04T11:25:38;7.53;;;5.13;;
26774;SDS011;14362;51.902;7.626;2023-12-04T11:29:40;8.00;;;5.60;;
26774;SDS011;14362;51.902;7.626;2023-12-04T11:33:43;7.72;;;5.05;;
26774;SDS011;14362;51.902;7.626;2023-12-04T11:37:45;6.47;;;4.47;;
26774;SDS011;14362;51.902;7.626;2023-12-04T11:41:47;7.50;;;5.78;;
26774;SDS011;14362;51.902;7.626;2023-12-04T11:45:49;8.07;;;5.63;;
26774;SDS011;14362;51.902;7.626;2023-12-04T11:49:52;8.57;;;5.90;;
26774;SDS011;14362;51.902;7.626;2023-12-04T11:53:54;8.05;;;5.50;;
26774;SDS011;14362;51.902;7.626;2023-12-04T11:57:55;7.35;;;5.10;;
26774;SDS011;14362;51.902;7.626;2023-12-04T12:01:57;6.57;;;4.75;;
26774;SDS011;14362;51.902;7.626;2023-12-04T12:06:00;7.70;;;5.18;;
26774;SDS011;14362;51.902;7.626;2023-12-04T12:10:02;7.93;;;5.20;;
26774;SDS011;14362;51.902;7.626;2023-12-04T12:14:03;8.07;;;5.13;;
26774;SDS011;14362;51.902;7.626;2023-12-04T12:18:06;7.60;;;5.15;;
26774;SDS011;14362;51.902;7.626;2023-12-04T12:22:09;7.47;;;5.13;;
26774;SDS011;14362;51.902;7.626;2023-12-04T12:26:10;6.78;;;5.35;;
26774;SDS011;14362;51.902;7.626;2023-12-04T12:30:12;7.63;;;4.95;;
26774;SDS011;14362;51.902;7.626;2023-12-04T12:34:15;7.85;;;5.15;;
26774;SDS011;14362;51.902;7.626;2023-12-04T12:38:17;8.05;;;5.15;;
26774;SDS011;14362;51.902;7.626;2023-12-04T12:42:23;7.07;;;4.90;;
26774;SDS011;14362;51.902;7.626;2023-12-04T12:46:25;7.15;;;5.32;;
26774;SDS011;14362;51.902;7.626;2023-12-04T12:50:26;7.45;;;5.38;;
26774;SDS011;14362;51.902;7.626;2023-12-04T12:54:29;7.82;;;5.38;;
26774;SDS011;14362;51.902;7.626;2023-12-04T12:58:33;8.50;;;5.18;;
26774;SDS011;14362;51.902;7.626;2023-12-04T13:02:35;8.52;;;4.88;;
26774;SDS011;14362;51.902;7.626;2023-12-04T13:06:37;7.03;;;5.20;;
26774;SDS011;14362;51.902;7.626;2023-12-04T13:10:40;8.50;;;5.32;;
26774;SDS011;14362;51.902;7.626;2023-12-04T13:14:42;8.05;;;5.30;;
26774;SDS011;14362;51.902;7.626;2023-12-04T13:18:43;12.07;;;5.85;;
26774;SDS011;14362;51.902;7.626;2023-12-04T13:22:45;7.28;;;4.80;;
26774;SDS011;14362;51.902;7.626;2023-12-04T13:26:47;7.60;;;5.25;;
26774;SDS011;14362;51.902;7.626;2023-12-04T13:30:49;10.68;;;5.95;;
26774;SDS011;14362;51.902;7.626;2023-12-04T13:34:51;7.10;;;4.72;;
26774;SDS011;14362;51.902;7.626;2023-12-04T13:38:52;8.52;;;5.82;;
26774;SDS011;14362;51.902;7.626;2023-12-04T13:42:55;7.85;;;5.57;;
26774;SDS011;14362;51.902;7.626;2023-12-04T13:47:14;9.15;;;5.47;;
26774;SDS011;14362;51.902;7.626;2023-12-04T13:51:16;11.02;;;5.80;;
26774;SDS011;14362;51.902;7.626;2023-12-04T13:55:17;10.93;;;5.78;;
26774;SDS011;14362;51.902;7.626;2023-12-04T13:59:22;8.77;;;5.90;;
26774;SDS011;14362;51.902;7.626;2023-12-04T14:03:24;9.82;;;5.95;;
26774;SDS011;14362;51.902;7.626;2023-12-04T14:07:26;9.00;;;6.88;;
26774;SDS011;14362;51.902;7.626;2023-12-04T14:11:27;8.93;;;6.22;;
26774;SDS011;14362;51.902;7.626;2023-12-04T14:15:30;8.15;;;6.03;;
26774;SDS011;14362;51.902;7.626;2023-12-04T14:19:31;12.02;;;7.28;;
26774;SDS011;14362;51.902;7.626;2023-12-04T14:23:33;10.93;;;6.32;;
26774;SDS011;14362;51.902;7.626;2023-12-04T14:27:35;10.00;;;6.50;;
26774;SDS011;14362;51.902;7.626;2023-12-04T14:31:40;10.10;;;6.22;;
26774;SDS011;14362;51.902;7.626;2023-12-04T14:35:42;11.30;;;6.72;;
26774;SDS011;14362;51.902;7.626;2023-12-04T14:39:44;9.93;;;6.50;;
26774;SDS011;14362;51.902;7.626;2023-12-04T14:43:46;9.85;;;6.93;;
26774;SDS011;14362;51.902;7.626;2023-12-04T14:47:49;13.05;;;7.40;;
26774;SDS011;14362;51.902;7.626;2023-12-04T14:51:54;9.60;;;6.32;;
26774;SDS011;14362;51.902;7.626;2023-12-04T14:55:56;9.05;;;6.45;;
26774;SDS011;14362;51.902;7.626;2023-12-04T15:00:29;10.82;;;7.22;;
26774;SDS011;14362;51.902;7.626;2023-12-04T15:04:52;12.98;;;7.28;;
26774;SDS011;14362;51.902;7.626;2023-12-04T15:09:11;12.52;;;7.95;;
26774;SDS011;14362;51.902;7.626;2023-12-04T15:13:30;12.10;;;6.80;;
26774;SDS011;14362;51.902;7.626;2023-12-04T15:17:43;13.50;;;7.63;;
26774;SDS011;14362;51.902;7.626;2023-12-04T15:21:52;11.20;;;7.85;;
26774;SDS011;14362;51.902;7.626;2023-12-04T15:25:55;10.07;;;6.82;;
26774;SDS011;14362;51.902;7.626;2023-12-04T15:29:56;11.40;;;7.07;;
26774;SDS011;14362;51.902;7.626;2023-12-04T15:33:57;13.90;;;7.20;;
26774;SDS011;14362;51.902;7.626;2023-12-04T15:38:00;14.75;;;8.75;;
26774;SDS011;14362;51.902;7.626;2023-12-04T15:42:02;13.93;;;8.45;;
26774;SDS011;14362;51.902;7.626;2023-12-04T15:46:06;28.02;;;9.13;;
26774;SDS011;14362;51.902;7.626;2023-12-04T15:50:07;16.02;;;9.27;;
26774;SDS011;14362;51.902;7.626;2023-12-04T15:54:10;17.55;;;9.43;;
26774;SDS011;14362;51.902;7.626;2023-12-04T15:58:11;15.82;;;10.00;;
26774;SDS011;14362;51.902;7.626;2023-12-04T16:02:13;16.98;;;10.10;;
26774;SDS011;14362;51.902;7.626;2023-12-04T16:06:14;16.40;;;9.95;;
26774;SDS011;14362;51.902;7.626;2023-12-04T16:10:17;16.08;;;9.98;;
26774;SDS011;14362;51.902;7.626;2023-12-04T16:14:19;15.50;;;9.75;;
26774;SDS011;14362;51.902;7.626;2023-12-04T16:18:21;19.40;;;10.77;;
26774;SDS011;14362;51.902;7.626;2023-12-04T16:22:23;16.15;;;9.43;;
26774;SDS011;14362;51.902;7.626;2023-12-04T16:26:25;16.42;;;10.15;;
26774;SDS011;14362;51.902;7.626;2023-12-04T16:30:27;17.95;;;10.10;;
26774;SDS011;14362;51.902;7.626;2023-12-04T16:34:28;17.33;;;9.35;;
26774;SDS011;14362;51.902;7.626;2023-12-04T16:38:30;16.58;;;9.25;;
26774;SDS011;14362;51.902;7.626;2023-12-04T16:42:33;16.02;;;9.98;;
26774;SDS011;14362;51.902;7.626;2023-12-04T16:46:34;16.48;;;10.00;;
26774;SDS011;14362;51.902;7.626;2023-12-04T16:50:36;17.77;;;10.02;;
26774;SDS011;14362;51.902;7.626;2023-12-04T16:54:37;16.55;;;10.25;;
26774;SDS011;14362;51.902;7.626;2023-12-04T16:58:40;17.58;;;10.25;;
26774;SDS011;14362;51.902;7.626;2023-12-04T17:02:42;19.25;;;10.95;;
26774;SDS011;14362;51.902;7.626;2023-12-04T17:06:44;20.42;;;10.10;;
26774;SDS011;14362;51.902;7.626;2023-12-04T17:10:45;15.45;;;9.93;;
26774;SDS011;14362;51.902;7.626;2023-12-04T17:14:49;16.15;;;9.65;;
26774;SDS011;14362;51.902;7.626;2023-12-04T17:18:50;16.65;;;10.50;;
26774;SDS011;14362;51.902;7.626;2023-12-04T17:22:52;17.45;;;10.05;;
26774;SDS011;14362;51.902;7.626;2023-12-04T17:26:53;15.15;;;9.93;;
26774;SDS011;14362;51.902;7.626;2023-12-04T17:30:56;17.77;;;10.43;;
26774;SDS011;14362;51.902;7.626;2023-12-04T17:34:57;14.60;;;9.00;;
26774;SDS011;14362;51.902;7.626;2023-12-04T17:38:59;16.83;;;9.38;;
26774;SDS011;14362;51.902;7.626;2023-12-04T17:43:00;17.50;;;10.07;;
26774;SDS011;14362;51.902;7.626;2023-12-04T17:47:03;14.23;;;9.00;;
26774;SDS011;14362;51.902;7.626;2023-12-04T17:51:05;16.52;;;10.13;;
26774;SDS011;14362;51.902;7.626;2023-12-04T17:55:07;17.50;;;10.25;;
26774;SDS011;14362;51.902;7.626;2023-12-04T17:59:10;16.83;;;10.30;;
26774;SDS011;14362;51.902;7.626;2023-12-04T18:03:13;16.38;;;9.98;;
26774;SDS011;14362;51.902;7.626;2023-12-04T18:07:16;17.70;;;9.90;;
26774;SDS011;14362;51.902;7.626;2023-12-04T18:11:17;15.57;;;10.00;;
26774;SDS011;14362;51.902;7.626;2023-12-04T18:15:19;16.55;;;9.48;;
26774;SDS011;14362;51.902;7.626;2023-12-04T18:19:22;15.88;;;9.85;;
26774;SDS011;14362;51.902;7.626;2023-12-04T18:23:23;17.17;;;10.60;;
26774;SDS011;14362;51.902;7.626;2023-12-04T18:27:24;18.30;;;10.07;;
26774;SDS011;14362;51.902;7.626;2023-12-04T18:31:26;15.80;;;9.38;;
26774;SDS011;14362;51.902;7.626;2023-12-04T18:35:30;15.55;;;9.05;;
26774;SDS011;14362;51.902;7.626;2023-12-04T18:39:31;15.65;;;9.93;;
26774;SDS011;14362;51.902;7.626;2023-12-04T18:43:33;18.02;;;9.48;;
26774;SDS011;14362;51.902;7.626;2023-12-04T18:47:36;19.38;;;11.07;;
26774;SDS011;14362;51.902;7.626;2023-12-04T18:51:41;15.23;;;9.82;;
26774;SDS011;14362;51.902;7.626;2023-12-04T18:55:43;16.90;;;10.30;;
26774;SDS011;14362;51.902;7.626;2023-12-04T18:59:44;15.85;;;9.77;;
26774;SDS011;14362;51.902;7.626;2023-12-04T19:03:46;18.83;;;10.73;;
26774;SDS011;14362;51.902;7.626;2023-12-04T19:07:48;18.15;;;10.68;;
26774;SDS011;14362;51.902;7.626;2023-12-04T19:11:50;18.38;;;11.32;;
26774;SDS011;14362;51.902;7.626;2023-12-04T19:15:51;18.27;;;10.48;;
26774;SDS011;14362;51.902;7.626;2023-12-04T19:19:52;19.13;;;10.50;;
26774;SDS011;14362;51.902;7.626;2023-12-04T19:23:55;20.52;;;11.35;;
26774;SDS011;14362;51.902;7.626;2023-12-04T19:27:57;21.10;;;11.70;;
26774;SDS011;14362;51.902;7.626;2023-12-04T19:31:58;18.80;;;10.95;;
26774;SDS011;14362;51.902;7.626;2023-12-04T19:36:03;20.35;;;10.63;;
26774;SDS011;14362;51.902;7.626;2023-12-04T19:44:11;18.73;;;11.02;;
26774;SDS011;14362;51.902;7.626;2023-12-04T19:48:13;17.60;;;10.38;;
26774;SDS011;14362;51.902;7.626;2023-12-04T19:52:15;20.83;;;11.63;;
26774;SDS011;14362;51.902;7.626;2023-12-04T19:56:18;18.27;;;10.98;;
26774;SDS011;14362;51.902;7.626;2023-12-04T20:00:19;23.10;;;12.43;;
26774;SDS011;14362;51.902;7.626;2023-12-04T20:04:20;20.33;;;11.02;;
26774;SDS011;14362;51.902;7.626;2023-12-04T20:08:22;20.02;;;10.27;;
26774;SDS011;14362;51.902;7.626;2023-12-04T20:12:25;19.63;;;11.18;;
26774;SDS011;14362;51.902;7.626;2023-12-04T20:16:26;20.92;;;10.70;;
26774;SDS011;14362;51.902;7.626;2023-12-04T20:20:29;19.15;;;10.27;;
26774;SDS011;14362;51.902;7.626;2023-12-04T20:24:31;19.38;;;11.48;;
26774;SDS011;14362;51.902;7.626;2023-12-04T20:28:33;18.10;;;10.77;;
26774;SDS011;14362;51.902;7.626;2023-12-04T20:32:35;18.42;;;11.25;;
26774;SDS011;14362;51.902;7.626;2023-12-04T20:36:36;18.35;;;10.57;;
26774;SDS011;14362;51.902;7.626;2023-12-04T20:40:39;20.55;;;11.82;;
26774;SDS011;14362;51.902;7.626;2023-12-04T20:44:42;17.60;;;10.65;;
26774;SDS011;14362;51.902;7.626;2023-12-04T20:48:43;20.55;;;11.50;;
26774;SDS011;14362;51.902;7.626;2023-12-04T20:52:45;19.25;;;10.75;;
26774;SDS011;14362;51.902;7.626;2023-12-04T20:56:46;19.05;;;11.27;;
26774;SDS011;14362;51.902;7.626;2023-12-04T21:00:49;17.52;;;11.02;;
26774;SDS011;14362;51.902;7.626;2023-12-04T21:04:51;17.83;;;10.38;;
26774;SDS011;14362;51.902;7.626;2023-12-04T21:08:52;17.50;;;11.32;;
26774;SDS011;14362;51.902;7.626;2023-12-04T21:12:53;20.55;;;10.75;;
26774;SDS011;14362;51.902;7.626;2023-12-04T21:16:56;19.45;;;11.48;;
26774;SDS011;14362;51.902;7.626;2023-12-04T21:20:58;20.67;;;12.00;;
26774;SDS011;14362;51.902;7.626;2023-12-04T21:24:59;19.52;;;11.20;;
26774;SDS011;14362;51.902;7.626;2023-12-04T21:29:00;19.13;;;11.13;;
26774;SDS011;14362;51.902;7.626;2023-12-04T21:33:03;21.15;;;11.48;;
26774;SDS011;14362;51.902;7.626;2023-12-04T21:37:06;21.63;;;11.98;;
26774;SDS011;14362;51.902;7.626;2023-12-04T21:41:08;20.30;;;11.90;;
26774;SDS011;14362;51.902;7.626;2023-12-04T21:45:10;25.92;;;13.73;;
26774;SDS011;14362;51.902;7.626;2023-12-04T21:49:13;19.83;;;12.18;;
26774;SDS011;14362;51.902;7.626;2023-12-04T21:53:14;20.98;;;11.95;;
26774;SDS011;14362;51.902;7.626;2023-12-04T21:57:16;21.73;;;11.98;;
26774;SDS011;14362;51.902;7.626;2023-12-04T22:01:17;20.45;;;12.32;;
26774;SDS011;14362;51.902;7.626;2023-12-04T22:05:20;20.45;;;11.50;;
26774;SDS011;14362;51.902;7.626;2023-12-04T22:09:21;22.52;;;12.73;;
26774;SDS011;14362;51.902;7.626;2023-12-04T22:13:23;19.38;;;11.25;;
26774;SDS011;14362;51.902;7.626;2023-12-04T22:17:25;18.00;;;11.73;;
26774;SDS011;14362;51.902;7.626;2023-12-04T22:21:27;19.77;;;11.98;;
26774;SDS011;14362;51.902;7.626;2023-12-04T22:25:29;19.58;;;12.13;;
26774;SDS011;14362;51.902;7.626;2023-12-04T22:29:30;20.13;;;12.23;;
26774;SDS011;14362;51.902;7.626;2023-12-04T22:33:32;20.50;;;12.18;;
26774;SDS011;14362;51.902;7.626;2023-12-04T22:37:36;18.58;;;10.88;;
26774;SDS011;14362;51.902;7.626;2023-12-04T22:41:37;18.70;;;11.73;;
26774;SDS011;14362;51.902;7.626;2023-12-04T22:45:39;18.13;;;10.90;;
26774;SDS011;14362;51.902;7.626;2023-12-04T22:49:40;19.95;;;11.38;;
26774;SDS011;14362;51.902;7.626;2023-12-04T22:53:44;18.90;;;10.73;;
26774;SDS011;14362;51.902;7.626;2023-12-04T22:57:45;17.40;;;10.80;;
26774;SDS011;14362;51.902;7.626;2023-12-04T23:01:47;21.00;;;11.45;;
26774;SDS011;14362;51.902;7.626;2023-12-04T23:05:48;19.02;;;11.25;;
26774;SDS011;14362;51.902;7.626;2023-12-04T23:09:51;18.15;;;11.43;;
26774;SDS011;14362;51.902;7.626;2023-12-04T23:13:52;17.45;;;10.43;;
26774;SDS011;14362;51.902;7.626;2023-12-04T23:17:54;18.48;;;11.52;;
26774;SDS011;14362;51.902;7.626;2023-12-04T23:21:55;21.25;;;12.40;;
26774;SDS011;14362;51.902;7.626;2023-12-04T23:25:59;17.65;;;10.63;;
26774;SDS011;14362;51.902;7.626;2023-12-04T23:30:00;19.17;;;11.13;;
26774;SDS011;14362;51.902;7.626;2023-12-04T23:34:02;20.40;;;11.57;;
26774;SDS011;14362;51.902;7.626;2023-12-04T23:38:04;20.25;;;10.77;;
26774;SDS011;14362;51.902;7.626;2023-12-04T23:42:07;19.88;;;11.90;;
26774;SDS011;14362;51.902;7.626;2023-12-04T23:46:09;20.33;;;11.88;;
26774;SDS011;14362;51.902;7.626;2023-12-04T23:50:10;20.58;;;12.07;;
26774;SDS011;14362;51.902;7.626;2023-12-04T23:54:12;20.58;;;11.57;;
26774;SDS011;14362;51.902;7.626;2023-12-04T23:58:15;21.02;;;12.20;;
